Time;durP1;ratioP1;P1;durP2;ratioP2;P2;SDS_P1;SDS_P2;PMS_P1;PMS_P2;Temp;Humidity;BMP_temperature;BMP_pressure;BME280_temperature;BME280_humidity;BME280_pressure;Samples;Min_cycle;Max_cycle;Signal;HPM_P1;HPM_P2
2023/06/26 00:00:31;;;;;;;5.47;4.95;;;24.40;82.00;;;;;;2074898;28;20025;-70
2023/06/26 00:01:32;;;;;;;5.45;4.95;;;24.40;82.10;;;;;;2075176;28;20013;-70
2023/06/26 00:02:33;;;;;;;5.60;5.10;;;24.40;80.50;;;;;;2074646;28;20079;-70
2023/06/26 00:03:33;;;;;;;4.72;4.30;;;24.40;81.30;;;;;;2076931;28;20478;-70
2023/06/26 00:04:35;;;;;;;6.13;5.35;;;24.40;81.80;;;;;;2075679;28;20108;-70
2023/06/26 00:05:36;;;;;;;7.85;5.15;;;24.40;81.10;;;;;;2074937;28;20128;-70
2023/06/26 00:06:38;;;;;;;5.78;5.15;;;24.40;80.60;;;;;;2074456;28;20026;-70
2023/06/26 00:07:38;;;;;;;5.65;5.07;;;24.40;81.10;;;;;;2075375;28;20472;-69
2023/06/26 00:08:39;;;;;;;5.00;4.60;;;24.40;81.70;;;;;;2076336;28;20060;-70
2023/06/26 00:09:40;;;;;;;5.60;5.10;;;24.40;81.00;;;;;;2074543;28;20036;-70
2023/06/26 00:10:41;;;;;;;4.88;4.53;;;24.40;80.20;;;;;;2074142;28;20490;-70
2023/06/26 00:11:41;;;;;;;5.45;4.97;;;24.40;79.60;;;;;;2075763;28;20375;-70
2023/06/26 00:12:42;;;;;;;5.00;4.20;;;24.40;79.80;;;;;;2076312;28;20053;-70
2023/06/26 00:13:42;;;;;;;4.88;4.47;;;24.30;79.00;;;;;;2076103;28;20386;-70
2023/06/26 00:14:43;;;;;;;6.20;4.78;;;24.40;79.40;;;;;;2074281;28;20030;-70
2023/06/26 00:15:44;;;;;;;5.18;4.72;;;24.40;78.90;;;;;;2074766;28;20036;-70
2023/06/26 00:16:44;;;;;;;5.10;4.60;;;24.40;79.20;;;;;;2075833;28;20022;-70
2023/06/26 00:17:45;;;;;;;5.38;4.90;;;24.40;79.30;;;;;;2075867;28;20017;-70
2023/06/26 00:18:45;;;;;;;5.13;4.63;;;24.40;79.60;;;;;;2075903;28;20022;-70
2023/06/26 00:19:46;;;;;;;7.47;5.13;;;24.40;79.40;;;;;;2077018;28;20033;-70
2023/06/26 00:20:47;;;;;;;4.90;4.40;;;24.40;79.70;;;;;;2075618;28;20037;-70
2023/06/26 00:21:47;;;;;;;6.20;4.43;;;24.40;79.30;;;;;;2074965;28;20145;-70
2023/06/26 00:22:50;;;;;;;5.00;4.50;;;24.40;79.70;;;;;;2074257;28;20037;-70
2023/06/26 00:23:51;;;;;;;6.22;4.95;;;24.40;80.00;;;;;;2075712;28;20030;-70
2023/06/26 00:24:52;;;;;;;4.80;4.40;;;24.40;79.60;;;;;;2076288;28;20026;-70
2023/06/26 00:25:52;;;;;;;4.47;4.07;;;24.40;79.40;;;;;;2076673;28;20052;-70
2023/06/26 00:26:53;;;;;;;7.20;4.70;;;24.40;79.80;;;;;;2075105;28;20029;-70
2023/06/26 00:27:53;;;;;;;7.47;5.15;;;24.40;79.60;;;;;;2075547;28;20061;-70
2023/06/26 00:28:54;;;;;;;5.05;4.65;;;24.40;79.10;;;;;;2073691;28;20484;-70
2023/06/26 00:29:54;;;;;;;5.07;4.68;;;24.40;79.40;;;;;;2075232;28;20026;-70
2023/06/26 00:30:55;;;;;;;6.72;5.07;;;24.40;80.40;;;;;;2074097;28;20026;-70
2023/06/26 00:31:55;;;;;;;5.22;4.72;;;24.40;79.80;;;;;;2075923;28;20022;-70
2023/06/26 00:32:56;;;;;;;5.40;4.97;;;24.30;79.20;;;;;;2075409;28;20029;-70
2023/06/26 00:33:56;;;;;;;4.70;4.30;;;24.30;79.60;;;;;;2076115;28;20095;-70
2023/06/26 00:34:57;;;;;;;5.70;4.55;;;24.30;79.90;;;;;;2075167;28;20061;-70
2023/06/26 00:35:57;;;;;;;5.78;4.80;;;24.30;79.60;;;;;;2078802;28;20021;-70
2023/06/26 00:36:59;;;;;;;5.05;4.65;;;24.30;79.50;;;;;;2078513;28;20095;-70
2023/06/26 00:38:00;;;;;;;9.85;5.18;;;24.30;79.20;;;;;;2075706;28;20044;-70
2023/06/26 00:39:00;;;;;;;5.93;4.95;;;24.30;79.20;;;;;;2073514;28;20141;-70
2023/06/26 00:40:01;;;;;;;5.25;4.85;;;24.30;79.10;;;;;;2073273;28;20034;-70
2023/06/26 00:41:01;;;;;;;5.53;5.03;;;24.30;80.00;;;;;;2075100;28;20030;-70
2023/06/26 00:42:02;;;;;;;5.45;4.95;;;24.30;79.10;;;;;;2075071;28;20045;-70
2023/06/26 00:43:02;;;;;;;5.90;4.80;;;24.20;78.20;;;;;;2074766;28;20029;-70
2023/06/26 00:44:04;;;;;;;5.25;4.75;;;24.30;78.10;;;;;;2074371;28;20037;-70
2023/06/26 00:45:05;;;;;;;5.28;4.72;;;24.20;77.90;;;;;;2074062;28;20060;-70
2023/06/26 00:46:13;;;;;;;5.57;4.85;;;24.20;78.60;;;;;;2075966;28;20373;-70
2023/06/26 00:47:15;;;;;;;5.15;4.65;;;24.20;79.20;;;;;;2073594;28;20496;-70
2023/06/26 00:48:16;;;;;;;5.72;5.13;;;24.20;79.50;;;;;;2076399;28;20030;-70
2023/06/26 00:49:17;;;;;;;4.65;4.15;;;24.20;80.00;;;;;;2074340;28;20033;-70
2023/06/26 00:50:18;;;;;;;5.47;4.85;;;24.20;80.50;;;;;;2074626;28;20037;-70
2023/06/26 00:51:19;;;;;;;6.45;4.65;;;24.20;80.80;;;;;;2074741;28;20092;-70
2023/06/26 00:52:19;;;;;;;5.72;5.22;;;24.20;80.80;;;;;;2073141;28;20060;-70
2023/06/26 00:53:20;;;;;;;5.40;4.90;;;24.20;80.10;;;;;;2074926;28;20072;-70
2023/06/26 00:54:22;;;;;;;5.03;4.60;;;24.20;80.10;;;;;;2074572;28;20034;-70
2023/06/26 00:55:22;;;;;;;5.20;4.68;;;24.20;80.70;;;;;;2075539;28;20029;-70
2023/06/26 00:56:23;;;;;;;5.18;4.68;;;24.20;82.50;;;;;;2075581;28;20022;-70
2023/06/26 00:57:24;;;;;;;4.72;4.30;;;24.20;82.70;;;;;;2075207;28;20663;-70
2023/06/26 00:58:25;;;;;;;4.85;4.45;;;24.20;81.30;;;;;;2070425;28;21519;-70
2023/06/26 00:59:26;;;;;;;5.38;4.72;;;24.20;81.40;;;;;;2069285;28;20026;-70
2023/06/26 01:00:26;;;;;;;5.30;4.78;;;24.20;81.80;;;;;;2075879;28;20025;-70
2023/06/26 01:01:27;;;;;;;4.72;4.35;;;24.20;82.20;;;;;;2075632;28;20141;-70
2023/06/26 01:02:33;;;;;;;5.20;4.78;;;24.10;82.20;;;;;;2073357;28;20137;-70
2023/06/26 01:03:33;;;;;;;6.07;4.50;;;24.10;82.50;;;;;;2075427;28;20066;-70
2023/06/26 01:04:34;;;;;;;6.55;5.00;;;24.10;82.60;;;;;;2072715;28;20018;-70
2023/06/26 01:05:35;;;;;;;5.40;4.90;;;24.10;83.10;;;;;;2065527;28;20026;-70
2023/06/26 01:06:35;;;;;;;5.28;4.78;;;24.10;83.00;;;;;;2075084;28;20079;-70
2023/06/26 01:07:37;;;;;;;5.10;4.60;;;24.10;82.60;;;;;;2074440;28;20032;-70
2023/06/26 01:08:39;;;;;;;5.60;5.10;;;24.10;82.80;;;;;;2077139;28;20029;-70
2023/06/26 01:09:40;;;;;;;5.40;4.90;;;24.10;83.00;;;;;;2074783;28;20060;-70
2023/06/26 01:10:41;;;;;;;4.97;4.57;;;24.10;83.70;;;;;;2077399;28;20033;-70
2023/06/26 01:11:42;;;;;;;4.60;4.20;;;24.10;83.60;;;;;;2077277;28;20081;-70
2023/06/26 01:12:43;;;;;;;5.25;4.82;;;24.00;84.40;;;;;;2076424;28;20032;-70
2023/06/26 01:13:44;;;;;;;4.75;4.35;;;24.00;84.20;;;;;;2076032;28;20030;-70
2023/06/26 01:14:45;;;;;;;5.13;4.70;;;24.00;84.50;;;;;;2074546;28;20532;-70
2023/06/26 01:15:47;;;;;;;5.05;4.65;;;24.00;84.90;;;;;;2074740;28;20691;-70
2023/06/26 01:16:49;;;;;;;5.05;4.55;;;24.00;85.20;;;;;;2075105;28;20029;-70
2023/06/26 01:17:51;;;;;;;5.40;4.82;;;24.00;85.20;;;;;;2073205;28;20067;-70
2023/06/26 01:18:52;;;;;;;5.53;5.03;;;24.00;85.10;;;;;;2075377;28;20486;-70
2023/06/26 01:19:54;;;;;;;5.25;4.75;;;23.90;85.30;;;;;;2073028;28;20029;-70
2023/06/26 01:21:00;;;;;;;6.57;5.18;;;23.90;85.10;;;;;;2074820;28;20057;-70
2023/06/26 01:22:14;;;;;;;6.85;5.13;;;23.90;83.90;;;;;;2074743;28;20030;-70
2023/06/26 01:23:20;;;;;;;5.43;4.53;;;23.90;84.70;;;;;;2075107;28;20009;-70
2023/06/26 01:24:21;;;;;;;5.18;4.68;;;23.90;84.20;;;;;;2075941;28;20029;-70
2023/06/26 01:26:08;;;;;;;4.78;4.38;;;23.80;84.30;;;;;;2076392;28;20050;-70
2023/06/26 01:27:11;;;;;;;4.78;4.38;;;23.80;85.40;;;;;;2059403;28;20053;-70
2023/06/26 01:28:14;;;;;;;5.22;4.63;;;23.80;86.20;;;;;;2072112;28;20084;-70
2023/06/26 01:29:16;;;;;;;4.97;4.55;;;23.80;86.10;;;;;;2075008;28;20093;-70
2023/06/26 01:30:18;;;;;;;6.30;5.10;;;23.80;83.70;;;;;;2074412;28;20473;-70
2023/06/26 01:31:20;;;;;;;4.68;4.30;;;23.80;85.00;;;;;;2075756;28;20416;-70
2023/06/26 01:32:22;;;;;;;5.65;5.07;;;23.80;85.80;;;;;;2075729;28;20033;-70
2023/06/26 01:33:22;;;;;;;5.63;5.07;;;23.70;85.70;;;;;;2078265;28;20037;-70
2023/06/26 01:34:23;;;;;;;5.43;5.00;;;23.70;86.30;;;;;;2076993;28;20029;-70
2023/06/26 01:35:25;;;;;;;5.88;5.38;;;23.70;86.60;;;;;;2074548;28;20497;-70
2023/06/26 01:36:26;;;;;;;5.28;4.88;;;23.70;87.40;;;;;;2078668;28;20044;-70
2023/06/26 01:37:27;;;;;;;5.93;5.43;;;23.70;86.80;;;;;;2076718;28;20072;-70
2023/06/26 01:38:27;;;;;;;4.70;4.40;;;23.70;87.30;;;;;;2075032;28;20064;-70
2023/06/26 01:39:28;;;;;;;5.30;4.80;;;23.70;87.50;;;;;;2075455;28;20122;-70
2023/06/26 01:40:28;;;;;;;6.03;5.32;;;23.70;88.00;;;;;;2072992;28;20136;-70
2023/06/26 01:41:29;;;;;;;5.18;4.68;;;23.60;86.80;;;;;;2074882;28;20021;-70
2023/06/26 01:42:30;;;;;;;5.00;4.57;;;23.60;86.60;;;;;;2076727;28;20567;-70
2023/06/26 01:43:42;;;;;;;6.07;4.95;;;23.60;87.90;;;;;;2075916;28;20029;-70
2023/06/26 01:44:46;;;;;;;5.82;5.22;;;23.60;86.20;;;;;;2075034;28;20084;-70
2023/06/26 01:45:50;;;;;;;5.25;4.72;;;23.60;86.90;;;;;;2075115;28;20458;-70
2023/06/26 01:47:04;;;;;;;5.13;4.63;;;23.60;88.00;;;;;;2076089;28;20032;-70
2023/06/26 01:48:09;;;;;;;6.65;5.00;;;23.60;86.50;;;;;;2074666;28;20097;-70
2023/06/26 01:49:13;;;;;;;5.25;4.75;;;23.50;87.20;;;;;;2073785;28;20022;-70
2023/06/26 01:50:19;;;;;;;5.65;5.15;;;23.50;87.80;;;;;;2073131;28;20037;-70
2023/06/26 01:51:27;;;;;;;5.38;4.88;;;23.50;86.50;;;;;;2074139;28;20493;-70
2023/06/26 01:52:45;;;;;;;5.15;4.72;;;23.50;87.00;;;;;;2076203;28;20120;-70
2023/06/26 01:53:50;;;;;;;5.25;4.75;;;23.50;87.30;;;;;;2074317;28;20017;-70
2023/06/26 01:55:13;;;;;;;5.22;4.78;;;23.50;87.70;;;;;;2074835;28;20041;-70
2023/06/26 01:56:15;;;;;;;4.88;4.45;;;23.50;88.60;;;;;;2073917;28;20100;-70
2023/06/26 01:57:20;;;;;;;5.10;4.70;;;23.40;88.70;;;;;;2074850;28;20017;-70
2023/06/26 01:58:25;;;;;;;6.40;5.05;;;23.40;90.10;;;;;;2073613;28;20068;-70
2023/06/26 01:59:28;;;;;;;5.40;4.90;;;23.50;89.90;;;;;;2074764;28;20037;-70
2023/06/26 02:00:29;;;;;;;5.43;4.93;;;23.40;90.30;;;;;;2074717;28;20517;-70
2023/06/26 02:01:30;;;;;;;5.25;4.72;;;23.50;89.60;;;;;;2076128;28;20422;-70
2023/06/26 02:02:31;;;;;;;5.13;4.72;;;23.40;88.90;;;;;;2074509;28;20052;-70
2023/06/26 02:03:32;;;;;;;5.75;4.47;;;23.40;89.20;;;;;;2074286;28;20037;-70
2023/06/26 02:04:32;;;;;;;7.20;5.15;;;23.40;89.50;;;;;;2073781;28;20026;-70
2023/06/26 02:05:33;;;;;;;5.30;4.90;;;23.40;90.00;;;;;;2073465;28;20087;-70
2023/06/26 02:06:33;;;;;;;5.43;4.93;;;23.40;89.70;;;;;;2075790;28;20018;-70
2023/06/26 02:07:34;;;;;;;5.38;4.55;;;23.40;89.90;;;;;;2076273;28;20026;-70
2023/06/26 02:08:35;;;;;;;5.20;4.80;;;23.40;90.30;;;;;;2072957;28;20039;-70
2023/06/26 02:09:36;;;;;;;5.70;5.25;;;23.40;90.10;;;;;;2074517;28;20436;-70
2023/06/26 02:10:36;;;;;;;4.95;4.55;;;23.40;90.00;;;;;;2073708;28;20394;-70
2023/06/26 02:11:37;;;;;;;5.25;4.75;;;23.30;90.00;;;;;;2074546;28;20042;-70
2023/06/26 02:12:38;;;;;;;4.80;4.40;;;23.40;90.40;;;;;;2076197;28;20063;-70
2023/06/26 02:13:38;;;;;;;5.43;4.93;;;23.30;90.10;;;;;;2076384;28;20041;-70
2023/06/26 02:14:39;;;;;;;5.22;4.72;;;23.30;90.10;;;;;;2074892;28;20025;-70
2023/06/26 02:15:39;;;;;;;5.10;4.70;;;23.30;90.20;;;;;;2074294;28;20025;-70
2023/06/26 02:16:40;;;;;;;5.65;5.00;;;23.30;90.20;;;;;;2073710;28;20025;-70
2023/06/26 02:17:40;;;;;;;5.47;4.97;;;23.30;90.50;;;;;;2073944;28;20025;-70
2023/06/26 02:18:41;;;;;;;5.75;5.07;;;23.30;90.50;;;;;;2074925;28;20013;-70
2023/06/26 02:19:47;;;;;;;5.28;4.78;;;23.30;90.70;;;;;;2074307;28;20072;-70
2023/06/26 02:20:48;;;;;;;5.18;4.78;;;23.30;91.20;;;;;;2073961;28;20048;-70
2023/06/26 02:21:49;;;;;;;5.47;5.03;;;23.30;90.80;;;;;;2074041;28;20076;-70
2023/06/26 02:22:50;;;;;;;5.22;4.72;;;23.30;90.50;;;;;;2073863;28;20038;-70
2023/06/26 02:23:50;;;;;;;4.68;4.28;;;23.20;91.20;;;;;;2074595;28;20041;-70
2023/06/26 02:24:51;;;;;;;5.18;4.68;;;23.30;91.10;;;;;;2074395;28;20033;-70
2023/06/26 02:25:51;;;;;;;5.45;4.95;;;23.30;91.60;;;;;;2075636;28;20040;-70
2023/06/26 02:26:52;;;;;;;5.05;4.65;;;23.20;91.60;;;;;;2078387;28;20028;-70
2023/06/26 02:27:53;;;;;;;4.68;4.25;;;23.20;91.60;;;;;;2077156;28;20086;-70
2023/06/26 02:28:53;;;;;;;4.95;4.57;;;23.20;91.10;;;;;;2076051;28;20461;-70
2023/06/26 02:29:54;;;;;;;5.63;4.95;;;23.20;91.20;;;;;;2074473;28;20022;-70
2023/06/26 02:30:54;;;;;;;5.15;4.65;;;23.20;91.20;;;;;;2073683;28;20040;-70
2023/06/26 02:31:55;;;;;;;5.63;5.07;;;23.20;91.20;;;;;;2074735;28;20654;-70
2023/06/26 02:32:55;;;;;;;5.50;5.00;;;23.20;91.50;;;;;;2073799;28;20026;-70
2023/06/26 02:33:56;;;;;;;5.13;4.70;;;23.20;92.10;;;;;;2075206;28;20032;-70
2023/06/26 02:34:56;;;;;;;6.97;4.32;;;23.20;92.40;;;;;;2073931;28;20095;-70
2023/06/26 02:35:57;;;;;;;5.43;5.03;;;23.20;92.40;;;;;;2073836;28;20053;-70
2023/06/26 02:36:58;;;;;;;5.47;4.80;;;23.10;92.20;;;;;;2074730;28;20036;-70
2023/06/26 02:37:58;;;;;;;5.68;5.13;;;23.10;92.30;;;;;;2074553;28;20358;-70
2023/06/26 02:38:59;;;;;;;4.82;4.43;;;23.10;92.90;;;;;;2075133;28;20060;-71
2023/06/26 02:39:59;;;;;;;4.60;4.28;;;23.10;92.40;;;;;;2074385;28;20037;-70
2023/06/26 02:41:00;;;;;;;4.70;4.30;;;23.10;92.70;;;;;;2074494;28;20069;-70
2023/06/26 02:42:01;;;;;;;5.70;5.20;;;23.10;92.60;;;;;;2072606;28;20030;-70
2023/06/26 02:43:01;;;;;;;6.10;4.75;;;23.10;92.90;;;;;;2074182;28;20068;-71
2023/06/26 02:44:02;;;;;;;6.72;4.93;;;23.10;93.40;;;;;;2075869;28;20037;-70
2023/06/26 02:45:03;;;;;;;5.68;5.18;;;23.00;93.30;;;;;;2077633;28;20109;-70
2023/06/26 02:46:03;;;;;;;5.63;5.15;;;23.00;93.40;;;;;;2074807;28;20053;-70
2023/06/26 02:47:04;;;;;;;5.15;4.75;;;23.00;92.90;;;;;;2077030;28;20766;-70
2023/06/26 02:48:05;;;;;;;5.65;5.15;;;23.00;92.70;;;;;;2073226;28;22087;-70
2023/06/26 02:49:05;;;;;;;5.20;4.80;;;23.00;92.80;;;;;;2075746;28;20029;-70
2023/06/26 02:50:07;;;;;;;6.38;4.90;;;23.00;92.30;;;;;;2073912;28;20033;-70
2023/06/26 02:51:08;;;;;;;6.05;5.45;;;23.00;93.10;;;;;;2073502;28;20108;-70
2023/06/26 02:52:08;;;;;;;7.00;5.13;;;23.00;93.70;;;;;;2075009;28;20033;-70
2023/06/26 02:53:09;;;;;;;5.22;4.82;;;22.90;93.60;;;;;;2072576;28;20022;-71
2023/06/26 02:54:09;;;;;;;6.78;4.93;;;22.90;93.50;;;;;;2074083;28;20014;-70
2023/06/26 02:55:10;;;;;;;5.38;4.88;;;22.90;93.60;;;;;;2074628;28;20032;-70
2023/06/26 02:56:10;;;;;;;5.25;4.85;;;22.90;94.30;;;;;;2073461;28;20057;-70
2023/06/26 02:57:14;;;;;;;6.03;4.80;;;22.80;94.40;;;;;;2074743;28;20032;-70
2023/06/26 02:58:15;;;;;;;5.72;5.22;;;22.80;94.00;;;;;;2073098;28;20340;-70
2023/06/26 02:59:15;;;;;;;5.47;4.88;;;22.80;94.30;;;;;;2073649;28;20045;-70
2023/06/26 03:00:16;;;;;;;5.30;4.90;;;22.80;94.40;;;;;;2073538;28;20072;-70
2023/06/26 03:01:16;;;;;;;5.50;5.00;;;22.80;94.80;;;;;;2073742;28;20034;-71
2023/06/26 03:02:17;;;;;;;5.88;4.57;;;22.80;95.00;;;;;;2074142;28;20014;-71
2023/06/26 03:03:17;;;;;;;6.38;5.78;;;22.80;94.80;;;;;;2076284;28;20501;-70
2023/06/26 03:04:18;;;;;;;5.45;5.05;;;22.80;95.30;;;;;;2075077;28;20042;-71
2023/06/26 03:05:18;;;;;;;6.43;5.20;;;22.80;94.90;;;;;;2074696;28;20025;-70
2023/06/26 03:06:19;;;;;;;5.30;4.80;;;22.70;95.90;;;;;;2074223;28;20575;-71
2023/06/26 03:07:19;;;;;;;5.47;4.97;;;22.70;96.20;;;;;;2074256;28;20563;-70
2023/06/26 03:08:20;;;;;;;5.60;5.10;;;22.70;95.20;;;;;;2075273;28;20062;-70
2023/06/26 03:09:20;;;;;;;5.22;4.70;;;22.70;95.20;;;;;;2074238;28;20033;-71
2023/06/26 03:10:21;;;;;;;5.57;5.00;;;22.70;94.80;;;;;;2073873;28;20025;-70
2023/06/26 03:11:21;;;;;;;5.90;5.38;;;22.70;95.20;;;;;;2074276;28;20045;-70
2023/06/26 03:12:22;;;;;;;5.75;5.25;;;22.70;96.20;;;;;;2074760;28;20040;-70
2023/06/26 03:13:23;;;;;;;5.47;4.97;;;22.60;96.70;;;;;;2073734;28;20030;-70
2023/06/26 03:14:23;;;;;;;5.65;5.15;;;22.60;96.40;;;;;;2074668;28;20025;-71
2023/06/26 03:15:24;;;;;;;5.45;5.05;;;22.60;97.00;;;;;;2076177;28;20037;-70
2023/06/26 03:16:24;;;;;;;6.93;5.78;;;22.60;97.00;;;;;;2075483;28;20029;-70
2023/06/26 03:17:25;;;;;;;5.88;5.38;;;22.60;97.30;;;;;;2076044;28;20026;-70
2023/06/26 03:18:25;;;;;;;5.35;4.95;;;22.60;97.60;;;;;;2074367;28;20029;-71
2023/06/26 03:19:26;;;;;;;5.97;5.32;;;22.60;97.10;;;;;;2075162;28;20077;-70
2023/06/26 03:20:26;;;;;;;5.30;4.80;;;22.50;97.30;;;;;;2075188;28;20406;-70
2023/06/26 03:21:27;;;;;;;5.53;4.63;;;22.60;97.30;;;;;;2075135;28;20556;-70
2023/06/26 03:22:27;;;;;;;5.03;4.63;;;22.50;97.90;;;;;;2076435;28;20157;-70
2023/06/26 03:23:28;;;;;;;6.38;5.78;;;22.50;96.90;;;;;;2075763;28;20036;-70
2023/06/26 03:24:28;;;;;;;5.55;5.05;;;22.50;97.30;;;;;;2076573;28;20104;-70
2023/06/26 03:25:29;;;;;;;5.38;4.65;;;22.50;97.50;;;;;;2076511;28;20121;-71
2023/06/26 03:26:30;;;;;;;5.57;5.07;;;22.40;97.60;;;;;;2076013;28;20037;-70
2023/06/26 03:27:30;;;;;;;6.15;4.85;;;22.50;97.10;;;;;;2073620;28;20060;-70
2023/06/26 03:28:31;;;;;;;5.68;5.18;;;22.40;96.90;;;;;;2073053;28;20041;-70
2023/06/26 03:29:31;;;;;;;6.47;5.55;;;22.40;96.80;;;;;;2073714;28;20625;-70
2023/06/26 03:30:32;;;;;;;6.20;4.57;;;22.40;96.70;;;;;;2075286;28;20036;-71
2023/06/26 03:31:32;;;;;;;4.90;4.40;;;22.40;96.20;;;;;;2076314;28;20068;-71
2023/06/26 03:32:33;;;;;;;5.53;5.05;;;22.40;96.30;;;;;;2075523;28;20026;-71
2023/06/26 03:33:33;;;;;;;5.72;5.22;;;22.40;96.60;;;;;;2077649;28;20064;-70
2023/06/26 03:34:34;;;;;;;5.38;4.97;;;22.40;96.70;;;;;;2075377;28;20022;-71
2023/06/26 03:35:35;;;;;;;5.90;5.45;;;22.40;96.00;;;;;;2074845;28;20037;-71
2023/06/26 03:36:35;;;;;;;5.93;5.43;;;22.30;96.50;;;;;;2077383;28;20537;-70
2023/06/26 03:37:36;;;;;;;6.72;5.13;;;22.40;96.80;;;;;;2076934;28;20026;-70
2023/06/26 03:38:36;;;;;;;5.63;5.13;;;22.30;97.00;;;;;;2077224;28;20117;-71
2023/06/26 03:39:37;;;;;;;5.78;5.28;;;22.30;96.90;;;;;;2076004;28;20469;-71
2023/06/26 03:40:37;;;;;;;6.10;5.40;;;22.40;97.30;;;;;;2073505;28;20529;-71
2023/06/26 03:41:38;;;;;;;5.55;5.05;;;22.30;97.60;;;;;;2076784;28;20684;-70
2023/06/26 03:42:38;;;;;;;5.80;5.20;;;22.30;97.10;;;;;;2074775;28;20122;-71
2023/06/26 03:43:39;;;;;;;6.20;5.60;;;22.30;97.20;;;;;;2074567;28;20047;-71
2023/06/26 03:44:39;;;;;;;6.03;5.53;;;22.30;97.20;;;;;;2073616;28;20025;-71
2023/06/26 03:45:40;;;;;;;5.45;5.00;;;22.30;97.80;;;;;;2075669;28;20030;-70
2023/06/26 03:46:40;;;;;;;6.15;5.55;;;22.30;97.90;;;;;;2075187;28;20022;-71
2023/06/26 03:47:41;;;;;;;5.57;5.07;;;22.30;97.80;;;;;;2075056;28;20061;-71
2023/06/26 03:48:41;;;;;;;5.97;5.43;;;22.30;97.90;;;;;;2076444;28;20036;-70
2023/06/26 03:49:42;;;;;;;5.38;4.97;;;22.30;98.00;;;;;;2074557;28;20021;-71
2023/06/26 03:50:42;;;;;;;7.38;5.53;;;22.30;97.90;;;;;;2073520;28;20057;-71
2023/06/26 03:51:43;;;;;;;8.68;5.32;;;22.30;98.00;;;;;;2076703;28;20037;-71
2023/06/26 03:52:43;;;;;;;5.25;4.78;;;22.30;98.40;;;;;;2077369;28;20121;-71
2023/06/26 03:53:44;;;;;;;6.82;5.70;;;22.30;98.30;;;;;;2077077;28;20870;-71
2023/06/26 03:54:44;;;;;;;7.07;5.88;;;22.30;98.30;;;;;;2077458;28;20409;-71
2023/06/26 03:55:45;;;;;;;5.45;5.05;;;22.30;98.60;;;;;;2075824;28;20049;-71
2023/06/26 03:56:48;;;;;;;6.15;5.55;;;22.40;98.60;;;;;;2074964;28;20424;-71
2023/06/26 03:57:49;;;;;;;6.25;5.43;;;22.40;99.10;;;;;;2074238;28;20030;-71
2023/06/26 03:58:49;;;;;;;6.68;5.97;;;22.40;99.10;;;;;;2077734;28;20531;-71
2023/06/26 03:59:50;;;;;;;6.45;5.85;;;22.40;99.30;;;;;;2076546;28;20043;-70
2023/06/26 04:00:51;;;;;;;15.63;5.53;;;22.40;99.20;;;;;;2075328;28;20014;-71
2023/06/26 04:01:53;;;;;;;6.28;5.68;;;22.50;99.30;;;;;;2074721;28;20055;-71
2023/06/26 04:02:53;;;;;;;6.45;5.70;;;22.50;99.20;;;;;;2075086;28;20022;-71
2023/06/26 04:03:54;;;;;;;6.45;5.40;;;22.60;99.30;;;;;;2074500;28;20028;-70
2023/06/26 04:04:55;;;;;;;5.45;4.95;;;22.60;99.20;;;;;;2075842;28;20026;-71
2023/06/26 04:05:56;;;;;;;6.93;5.82;;;22.70;99.20;;;;;;2077326;28;20026;-71
2023/06/26 04:06:59;;;;;;;6.95;5.35;;;22.80;99.30;;;;;;2076564;28;20037;-71
2023/06/26 04:07:59;;;;;;;6.13;5.53;;;22.80;99.00;;;;;;2074542;28;20022;-71
2023/06/26 04:09:00;;;;;;;6.45;5.40;;;22.90;99.00;;;;;;2074476;28;20458;-71
2023/06/26 04:10:00;;;;;;;5.55;5.15;;;23.00;98.90;;;;;;2075302;28;20033;-71
2023/06/26 04:11:01;;;;;;;7.65;5.28;;;23.20;98.50;;;;;;2074435;28;20113;-71
2023/06/26 04:12:02;;;;;;;8.98;5.60;;;23.30;98.00;;;;;;2075340;28;20069;-71
2023/06/26 04:13:02;;;;;;;6.57;5.90;;;23.50;97.50;;;;;;2075271;28;20120;-71
2023/06/26 04:14:03;;;;;;;7.25;5.85;;;23.70;96.70;;;;;;2072944;28;20026;-71
2023/06/26 04:15:04;;;;;;;6.97;5.70;;;23.90;96.10;;;;;;2073146;28;20025;-71
2023/06/26 04:16:06;;;;;;;7.80;5.95;;;24.10;95.40;;;;;;2075012;28;20117;-71
2023/06/26 04:17:06;;;;;;;5.93;5.40;;;24.20;94.60;;;;;;2077327;28;20022;-71
2023/06/26 04:18:07;;;;;;;6.70;6.03;;;24.40;94.00;;;;;;2077682;28;20022;-70
2023/06/26 04:19:09;;;;;;;6.13;5.63;;;24.50;93.30;;;;;;2075458;28;20026;-71
2023/06/26 04:20:10;;;;;;;9.32;5.55;;;24.70;92.70;;;;;;2074889;28;20112;-71
2023/06/26 04:21:12;;;;;;;7.13;5.20;;;24.90;92.10;;;;;;2077305;28;20022;-70
2023/06/26 04:22:13;;;;;;;5.75;5.25;;;25.00;91.50;;;;;;2078063;28;20087;-71
2023/06/26 04:23:14;;;;;;;6.18;5.57;;;25.10;91.00;;;;;;2076126;28;20045;-71
2023/06/26 04:24:15;;;;;;;8.77;5.43;;;25.20;90.40;;;;;;2076057;28;20025;-71
2023/06/26 04:25:15;;;;;;;5.70;5.20;;;25.30;89.90;;;;;;2075954;28;20029;-70
2023/06/26 04:26:16;;;;;;;5.93;5.32;;;25.40;89.20;;;;;;2075344;28;20030;-71
2023/06/26 04:27:17;;;;;;;6.90;5.63;;;25.40;88.70;;;;;;2074053;28;20032;-71
2023/06/26 04:28:18;;;;;;;8.85;5.68;;;25.50;88.40;;;;;;2075392;28;20543;-70
2023/06/26 04:29:18;;;;;;;5.68;5.18;;;25.50;88.60;;;;;;2074611;28;20123;-71
2023/06/26 04:30:19;;;;;;;6.75;5.40;;;25.50;89.00;;;;;;2075538;28;20022;-71
2023/06/26 04:31:20;;;;;;;6.28;5.40;;;25.40;89.20;;;;;;2074505;28;20091;-71
2023/06/26 04:32:20;;;;;;;7.15;6.43;;;25.40;89.40;;;;;;2076121;28;20132;-71
2023/06/26 04:33:21;;;;;;;6.38;5.50;;;25.40;89.40;;;;;;2076402;28;20489;-71
2023/06/26 04:34:21;;;;;;;9.65;5.55;;;25.30;89.80;;;;;;2077434;28;20034;-71
2023/06/26 04:35:21;;;;;;;6.50;5.35;;;25.30;90.10;;;;;;2073056;28;20034;-71
2023/06/26 04:36:22;;;;;;;5.72;5.22;;;25.30;90.20;;;;;;2075891;28;20014;-71
2023/06/26 04:37:24;;;;;;;9.00;4.88;;;25.30;90.10;;;;;;2075859;28;20030;-71
2023/06/26 04:38:24;;;;;;;6.70;5.22;;;25.30;90.40;;;;;;2076481;28;20517;-70
2023/06/26 04:39:25;;;;;;;7.05;5.18;;;25.30;90.80;;;;;;2074929;28;20435;-70
2023/06/26 04:40:25;;;;;;;6.03;5.25;;;25.30;90.90;;;;;;2073141;28;20029;-71
2023/06/26 04:41:26;;;;;;;6.75;5.50;;;25.30;91.10;;;;;;2073479;28;20111;-71
2023/06/26 04:42:26;;;;;;;5.93;5.43;;;25.30;90.70;;;;;;2075009;28;20026;-71
2023/06/26 04:43:27;;;;;;;10.02;5.20;;;25.40;90.60;;;;;;2075922;28;20060;-71
2023/06/26 04:44:27;;;;;;;6.30;5.70;;;25.40;90.50;;;;;;2076220;28;20033;-71
2023/06/26 04:45:28;;;;;;;5.85;5.25;;;25.40;90.40;;;;;;2074320;28;20037;-71
2023/06/26 04:46:28;;;;;;;5.93;5.32;;;25.40;90.40;;;;;;2074069;28;20061;-70
2023/06/26 04:47:29;;;;;;;5.75;5.20;;;25.50;90.40;;;;;;2076122;28;20478;-70
2023/06/26 04:48:30;;;;;;;11.07;6.13;;;25.50;90.80;;;;;;2074286;28;20044;-71
2023/06/26 04:49:32;;;;;;;6.53;5.72;;;25.50;90.40;;;;;;2073595;28;20022;-71
2023/06/26 04:50:33;;;;;;;9.15;6.15;;;25.50;90.60;;;;;;2074255;28;20026;-71
2023/06/26 04:51:40;;;;;;;7.22;5.88;;;25.60;90.40;;;;;;2075438;28;20028;-71
2023/06/26 04:52:40;;;;;;;7.07;5.47;;;25.60;90.60;;;;;;2075449;28;20394;-71
2023/06/26 04:53:41;;;;;;;6.82;6.13;;;25.60;90.60;;;;;;2076116;28;20216;-71
2023/06/26 04:54:41;;;;;;;5.43;4.93;;;25.60;90.40;;;;;;2076308;28;20025;-71
2023/06/26 04:55:42;;;;;;;6.22;5.05;;;25.70;90.40;;;;;;2074285;28;20040;-71
2023/06/26 04:56:43;;;;;;;6.63;6.03;;;25.70;90.20;;;;;;2077746;28;20490;-71
2023/06/26 04:57:44;;;;;;;5.90;5.40;;;25.70;90.00;;;;;;2075395;28;20082;-71
2023/06/26 04:58:44;;;;;;;5.88;4.95;;;25.70;90.00;;;;;;2076226;28;20067;-71
2023/06/26 04:59:45;;;;;;;6.43;5.63;;;25.70;90.20;;;;;;2074000;28;20097;-71
2023/06/26 05:00:46;;;;;;;6.93;5.68;;;25.70;90.30;;;;;;2076666;28;20029;-70
2023/06/26 05:01:47;;;;;;;6.15;5.35;;;25.80;90.10;;;;;;2077583;28;20014;-71
2023/06/26 05:02:48;;;;;;;7.28;5.50;;;25.80;89.90;;;;;;2076253;28;20029;-71
2023/06/26 05:03:49;;;;;;;8.63;5.47;;;25.80;89.60;;;;;;2076283;28;20022;-71
2023/06/26 05:04:49;;;;;;;6.47;5.88;;;25.90;90.00;;;;;;2075124;28;20017;-71
2023/06/26 05:05:50;;;;;;;7.57;5.60;;;25.90;89.40;;;;;;2075359;28;20029;-71
2023/06/26 05:06:50;;;;;;;7.90;5.90;;;25.90;89.90;;;;;;2074813;28;20120;-71
2023/06/26 05:07:53;;;;;;;7.78;5.78;;;26.00;88.90;;;;;;2076464;28;20813;-71
2023/06/26 05:08:54;;;;;;;7.40;5.72;;;26.00;88.60;;;;;;2075427;28;20501;-71
2023/06/26 05:09:55;;;;;;;8.00;5.38;;;26.00;88.10;;;;;;2074177;28;20843;-71
2023/06/26 05:10:57;;;;;;;6.97;5.28;;;26.00;87.80;;;;;;2074626;28;20060;-71
2023/06/26 05:11:58;;;;;;;6.28;5.47;;;26.10;87.50;;;;;;2074530;28;20508;-71
2023/06/26 05:12:58;;;;;;;7.07;5.28;;;26.10;88.00;;;;;;2075858;28;20347;-71
2023/06/26 05:13:59;;;;;;;6.38;5.38;;;26.10;87.90;;;;;;2074523;28;20026;-71
2023/06/26 05:14:59;;;;;;;5.55;4.97;;;26.10;87.30;;;;;;2075751;28;20148;-71
2023/06/26 05:16:00;;;;;;;6.03;5.32;;;26.20;87.30;;;;;;2074686;28;20052;-71
2023/06/26 05:17:00;;;;;;;9.90;5.57;;;26.20;86.80;;;;;;2075441;28;20017;-71
2023/06/26 05:18:01;;;;;;;8.88;5.82;;;26.30;86.20;;;;;;2073659;28;20022;-71
2023/06/26 05:19:02;;;;;;;8.52;5.60;;;26.30;86.60;;;;;;2075300;28;20041;-71